sensor_id;sensor_type;location;lat;lon;timestamp;P1;durP1;ratioP1;P2;durP2;ratioP2
62796;SDS011;48839;48.546;-4.178;2023-01-29T00:02:20;12.20;;;7.10;;
62796;SDS011;48839;48.546;-4.178;2023-01-29T00:04:47;10.85;;;6.88;;
62796;SDS011;48839;48.546;-4.178;2023-01-29T00:07:13;11.80;;;7.68;;
62796;SDS011;48839;48.546;-4.178;2023-01-29T00:09:39;14.20;;;6.80;;
62796;SDS011;48839;48.546;-4.178;2023-01-29T00:12:05;8.68;;;6.40;;
62796;SDS011;48839;48.546;-4.178;2023-01-29T00:14:34;11.35;;;7.10;;
62796;SDS011;48839;48.546;-4.178;2023-01-29T00:17:00;11.50;;;7.38;;
62796;SDS011;48839;48.546;-4.178;2023-01-29T00:19:26;10.10;;;7.00;;
62796;SDS011;48839;48.546;-4.178;2023-01-29T00:21:52;14.13;;;7.90;;
62796;SDS011;48839;48.546;-4.178;2023-01-29T00:24:18;12.38;;;7.10;;
62796;SDS011;48839;48.546;-4.178;2023-01-29T00:26:44;10.57;;;6.30;;
62796;SDS011;48839;48.546;-4.178;2023-01-29T00:29:10;13.02;;;8.30;;
62796;SDS011;48839;48.546;-4.178;2023-01-29T00:31:36;13.65;;;7.63;;
62796;SDS011;48839;48.546;-4.178;2023-01-29T00:34:02;11.82;;;7.72;;
62796;SDS011;48839;48.546;-4.178;2023-01-29T00:36:28;12.07;;;7.63;;
62796;SDS011;48839;48.546;-4.178;2023-01-29T00:38:55;13.43;;;7.88;;
62796;SDS011;48839;48.546;-4.178;2023-01-29T00:41:22;13.27;;;7.75;;
62796;SDS011;48839;48.546;-4.178;2023-01-29T00:44:07;15.82;;;8.65;;
62796;SDS011;48839;48.546;-4.178;2023-01-29T00:46:52;13.05;;;8.50;;
62796;SDS011;48839;48.546;-4.178;2023-01-29T00:49:18;14.10;;;8.77;;
62796;SDS011;48839;48.546;-4.178;2023-01-29T00:51:44;12.07;;;7.72;;
62796;SDS011;48839;48.546;-4.178;2023-01-29T00:54:33;13.52;;;7.90;;
62796;SDS011;48839;48.546;-4.178;2023-01-29T00:56:59;11.00;;;7.47;;
62796;SDS011;48839;48.546;-4.178;2023-01-29T00:59:26;17.52;;;8.80;;
62796;SDS011;48839;48.546;-4.178;2023-01-29T01:01:52;16.60;;;9.68;;
62796;SDS011;48839;48.546;-4.178;2023-01-29T01:04:36;14.45;;;8.52;;
62796;SDS011;48839;48.546;-4.178;2023-01-29T01:07:02;15.40;;;9.43;;
62796;SDS011;48839;48.546;-4.178;2023-01-29T01:09:28;16.67;;;8.75;;
62796;SDS011;48839;48.546;-4.178;2023-01-29T01:12:13;15.50;;;7.90;;
62796;SDS011;48839;48.546;-4.178;2023-01-29T01:14:39;14.27;;;8.90;;
62796;SDS011;48839;48.546;-4.178;2023-01-29T01:17:07;15.07;;;8.57;;
62796;SDS011;48839;48.546;-4.178;2023-01-29T01:19:33;14.10;;;8.52;;
62796;SDS011;48839;48.546;-4.178;2023-01-29T01:21:59;14.23;;;8.75;;
62796;SDS011;48839;48.546;-4.178;2023-01-29T01:24:25;18.88;;;8.32;;
62796;SDS011;48839;48.546;-4.178;2023-01-29T01:26:51;17.05;;;8.65;;
62796;SDS011;48839;48.546;-4.178;2023-01-29T01:29:17;13.82;;;8.60;;
62796;SDS011;48839;48.546;-4.178;2023-01-29T01:31:43;15.55;;;9.13;;
62796;SDS011;48839;48.546;-4.178;2023-01-29T01:34:09;18.02;;;9.02;;
62796;SDS011;48839;48.546;-4.178;2023-01-29T01:36:35;19.08;;;9.65;;
62796;SDS011;48839;48.546;-4.178;2023-01-29T01:39:02;19.40;;;9.98;;
62796;SDS011;48839;48.546;-4.178;2023-01-29T01:41:28;14.70;;;9.00;;
62796;SDS011;48839;48.546;-4.178;2023-01-29T01:43:58;15.98;;;9.18;;
62796;SDS011;48839;48.546;-4.178;2023-01-29T01:46:27;15.90;;;9.65;;
62796;SDS011;48839;48.546;-4.178;2023-01-29T01:48:56;18.00;;;9.45;;
62796;SDS011;48839;48.546;-4.178;2023-01-29T01:51:24;16.58;;;8.75;;
62796;SDS011;48839;48.546;-4.178;2023-01-29T01:54:01;13.27;;;9.02;;
62796;SDS011;48839;48.546;-4.178;2023-01-29T01:56:30;18.10;;;10.57;;
62796;SDS011;48839;48.546;-4.178;2023-01-29T01:59:02;17.90;;;9.13;;
62796;SDS011;48839;48.546;-4.178;2023-01-29T02:01:30;14.70;;;9.77;;
62796;SDS011;48839;48.546;-4.178;2023-01-29T02:04:00;12.40;;;8.05;;
62796;SDS011;48839;48.546;-4.178;2023-01-29T02:06:46;22.08;;;11.10;;
62796;SDS011;48839;48.546;-4.178;2023-01-29T02:09:31;16.80;;;9.43;;
62796;SDS011;48839;48.546;-4.178;2023-01-29T02:12:10;16.48;;;9.65;;
62796;SDS011;48839;48.546;-4.178;2023-01-29T02:14:37;16.67;;;9.02;;
62796;SDS011;48839;48.546;-4.178;2023-01-29T02:17:04;18.15;;;10.23;;
62796;SDS011;48839;48.546;-4.178;2023-01-29T02:25:22;19.33;;;10.30;;
62796;SDS011;48839;48.546;-4.178;2023-01-29T02:30:23;17.73;;;10.10;;
62796;SDS011;48839;48.546;-4.178;2023-01-29T02:32:55;15.98;;;9.68;;
62796;SDS011;48839;48.546;-4.178;2023-01-29T02:38:16;14.95;;;9.40;;
62796;SDS011;48839;48.546;-4.178;2023-01-29T02:43:16;15.35;;;9.60;;
62796;SDS011;48839;48.546;-4.178;2023-01-29T02:45:50;15.82;;;10.13;;
62796;SDS011;48839;48.546;-4.178;2023-01-29T02:48:21;21.92;;;11.18;;
62796;SDS011;48839;48.546;-4.178;2023-01-29T02:50:52;19.48;;;9.98;;
62796;SDS011;48839;48.546;-4.178;2023-01-29T02:55:51;19.02;;;8.80;;
62796;SDS011;48839;48.546;-4.178;2023-01-29T03:00:47;17.75;;;10.48;;
62796;SDS011;48839;48.546;-4.178;2023-01-29T03:03:23;18.33;;;9.80;;
62796;SDS011;48839;48.546;-4.178;2023-01-29T03:05:59;18.20;;;9.80;;
62796;SDS011;48839;48.546;-4.178;2023-01-29T03:08:31;18.92;;;10.73;;
62796;SDS011;48839;48.546;-4.178;2023-01-29T03:11:04;18.08;;;9.18;;
62796;SDS011;48839;48.546;-4.178;2023-01-29T03:14:05;19.70;;;9.25;;
62796;SDS011;48839;48.546;-4.178;2023-01-29T03:16:31;16.70;;;10.02;;
62796;SDS011;48839;48.546;-4.178;2023-01-29T03:19:04;18.65;;;10.55;;
62796;SDS011;48839;48.546;-4.178;2023-01-29T03:21:32;18.85;;;10.85;;
62796;SDS011;48839;48.546;-4.178;2023-01-29T03:24:15;24.15;;;10.95;;
62796;SDS011;48839;48.546;-4.178;2023-01-29T03:27:03;17.25;;;10.20;;
62796;SDS011;48839;48.546;-4.178;2023-01-29T03:29:49;23.48;;;12.20;;
62796;SDS011;48839;48.546;-4.178;2023-01-29T03:32:35;20.38;;;12.15;;
62796;SDS011;48839;48.546;-4.178;2023-01-29T03:35:02;27.15;;;13.57;;
62796;SDS011;48839;48.546;-4.178;2023-01-29T03:37:34;31.95;;;15.35;;
62796;SDS011;48839;48.546;-4.178;2023-01-29T03:40:02;21.38;;;12.13;;
62796;SDS011;48839;48.546;-4.178;2023-01-29T03:42:33;21.38;;;10.73;;
62796;SDS011;48839;48.546;-4.178;2023-01-29T03:45:25;19.33;;;10.80;;
62796;SDS011;48839;48.546;-4.178;2023-01-29T03:48:15;17.63;;;10.02;;
62796;SDS011;48839;48.546;-4.178;2023-01-29T04:00:50;52.60;;;25.95;;
62796;SDS011;48839;48.546;-4.178;2023-01-29T04:05:45;20.50;;;10.85;;
62796;SDS011;48839;48.546;-4.178;2023-01-29T04:08:16;18.05;;;10.52;;
62796;SDS011;48839;48.546;-4.178;2023-01-29T04:10:45;18.52;;;11.48;;
62796;SDS011;48839;48.546;-4.178;2023-01-29T04:13:12;20.20;;;10.70;;
62796;SDS011;48839;48.546;-4.178;2023-01-29T04:15:46;19.02;;;10.45;;
62796;SDS011;48839;48.546;-4.178;2023-01-29T04:18:14;19.20;;;10.48;;
62796;SDS011;48839;48.546;-4.178;2023-01-29T04:20:40;17.73;;;9.77;;
62796;SDS011;48839;48.546;-4.178;2023-01-29T04:23:16;20.73;;;11.00;;
62796;SDS011;48839;48.546;-4.178;2023-01-29T04:25:44;15.30;;;10.30;;
62796;SDS011;48839;48.546;-4.178;2023-01-29T04:28:38;18.95;;;10.40;;
62796;SDS011;48839;48.546;-4.178;2023-01-29T04:31:08;19.20;;;10.57;;
62796;SDS011;48839;48.546;-4.178;2023-01-29T04:46:36;24.30;;;11.35;;
62796;SDS011;48839;48.546;-4.178;2023-01-29T04:49:08;20.67;;;12.07;;
62796;SDS011;48839;48.546;-4.178;2023-01-29T04:51:52;20.65;;;10.23;;
62796;SDS011;48839;48.546;-4.178;2023-01-29T04:56:50;24.52;;;11.63;;
62796;SDS011;48839;48.546;-4.178;2023-01-29T04:59:20;20.75;;;11.20;;
62796;SDS011;48839;48.546;-4.178;2023-01-29T05:01:48;21.60;;;10.68;;
62796;SDS011;48839;48.546;-4.178;2023-01-29T05:04:15;17.63;;;10.80;;
62796;SDS011;48839;48.546;-4.178;2023-01-29T05:06:42;21.98;;;10.60;;
62796;SDS011;48839;48.546;-4.178;2023-01-29T05:09:11;18.27;;;10.13;;
62796;SDS011;48839;48.546;-4.178;2023-01-29T05:11:38;20.13;;;12.52;;
62796;SDS011;48839;48.546;-4.178;2023-01-29T05:14:05;22.92;;;11.07;;
62796;SDS011;48839;48.546;-4.178;2023-01-29T05:16:33;21.02;;;11.23;;
62796;SDS011;48839;48.546;-4.178;2023-01-29T05:19:07;22.67;;;11.15;;
62796;SDS011;48839;48.546;-4.178;2023-01-29T05:21:33;20.88;;;11.13;;
62796;SDS011;48839;48.546;-4.178;2023-01-29T05:24:13;21.50;;;10.23;;
62796;SDS011;48839;48.546;-4.178;2023-01-29T05:26:41;19.55;;;10.43;;
62796;SDS011;48839;48.546;-4.178;2023-01-29T05:29:26;19.55;;;10.77;;
62796;SDS011;48839;48.546;-4.178;2023-01-29T05:31:52;19.20;;;10.98;;
62796;SDS011;48839;48.546;-4.178;2023-01-29T05:34:18;19.23;;;10.90;;
62796;SDS011;48839;48.546;-4.178;2023-01-29T05:36:44;23.83;;;12.15;;
62796;SDS011;48839;48.546;-4.178;2023-01-29T05:39:10;19.60;;;10.82;;
62796;SDS011;48839;48.546;-4.178;2023-01-29T05:41:36;19.98;;;11.70;;
62796;SDS011;48839;48.546;-4.178;2023-01-29T05:44:02;17.05;;;10.23;;
62796;SDS011;48839;48.546;-4.178;2023-01-29T05:46:28;19.35;;;10.00;;
62796;SDS011;48839;48.546;-4.178;2023-01-29T05:48:54;19.08;;;11.23;;
62796;SDS011;48839;48.546;-4.178;2023-01-29T05:51:20;19.60;;;11.18;;
62796;SDS011;48839;48.546;-4.178;2023-01-29T05:53:46;19.70;;;10.93;;
62796;SDS011;48839;48.546;-4.178;2023-01-29T05:56:12;17.15;;;9.50;;
62796;SDS011;48839;48.546;-4.178;2023-01-29T05:58:38;19.50;;;10.60;;
62796;SDS011;48839;48.546;-4.178;2023-01-29T06:01:11;18.08;;;11.40;;
62796;SDS011;48839;48.546;-4.178;2023-01-29T06:03:37;21.15;;;11.23;;
62796;SDS011;48839;48.546;-4.178;2023-01-29T06:06:03;19.90;;;10.20;;
62796;SDS011;48839;48.546;-4.178;2023-01-29T06:08:29;18.90;;;10.23;;
62796;SDS011;48839;48.546;-4.178;2023-01-29T06:10:56;18.73;;;10.05;;
62796;SDS011;48839;48.546;-4.178;2023-01-29T06:13:22;18.70;;;10.25;;
62796;SDS011;48839;48.546;-4.178;2023-01-29T06:15:48;19.75;;;11.15;;
62796;SDS011;48839;48.546;-4.178;2023-01-29T06:18:14;19.67;;;11.02;;
62796;SDS011;48839;48.546;-4.178;2023-01-29T06:20:40;21.60;;;13.45;;
62796;SDS011;48839;48.546;-4.178;2023-01-29T06:23:06;23.13;;;11.73;;
62796;SDS011;48839;48.546;-4.178;2023-01-29T06:25:31;20.95;;;10.48;;
62796;SDS011;48839;48.546;-4.178;2023-01-29T06:27:58;27.80;;;14.38;;
62796;SDS011;48839;48.546;-4.178;2023-01-29T06:30:24;27.52;;;15.82;;
62796;SDS011;48839;48.546;-4.178;2023-01-29T06:32:50;42.00;;;21.58;;
62796;SDS011;48839;48.546;-4.178;2023-01-29T06:35:16;33.00;;;17.45;;
62796;SDS011;48839;48.546;-4.178;2023-01-29T06:37:42;29.75;;;15.40;;
62796;SDS011;48839;48.546;-4.178;2023-01-29T06:40:08;29.23;;;16.45;;
62796;SDS011;48839;48.546;-4.178;2023-01-29T06:42:34;26.67;;;13.98;;
62796;SDS011;48839;48.546;-4.178;2023-01-29T06:45:00;34.45;;;17.13;;
62796;SDS011;48839;48.546;-4.178;2023-01-29T06:47:26;27.20;;;13.82;;
62796;SDS011;48839;48.546;-4.178;2023-01-29T06:49:52;18.73;;;11.05;;
62796;SDS011;48839;48.546;-4.178;2023-01-29T06:52:18;29.75;;;16.27;;
62796;SDS011;48839;48.546;-4.178;2023-01-29T06:54:44;30.65;;;15.60;;
62796;SDS011;48839;48.546;-4.178;2023-01-29T06:57:11;32.53;;;15.00;;
62796;SDS011;48839;48.546;-4.178;2023-01-29T06:59:37;31.10;;;18.90;;
62796;SDS011;48839;48.546;-4.178;2023-01-29T07:02:03;26.25;;;15.23;;
62796;SDS011;48839;48.546;-4.178;2023-01-29T07:04:29;19.00;;;11.30;;
62796;SDS011;48839;48.546;-4.178;2023-01-29T07:06:55;30.88;;;17.35;;
62796;SDS011;48839;48.546;-4.178;2023-01-29T07:09:21;20.75;;;12.05;;
62796;SDS011;48839;48.546;-4.178;2023-01-29T07:11:47;20.48;;;11.32;;
62796;SDS011;48839;48.546;-4.178;2023-01-29T07:14:13;20.38;;;10.73;;
62796;SDS011;48839;48.546;-4.178;2023-01-29T07:16:39;20.20;;;11.27;;
62796;SDS011;48839;48.546;-4.178;2023-01-29T07:19:05;18.23;;;10.02;;
62796;SDS011;48839;48.546;-4.178;2023-01-29T07:21:31;22.92;;;11.57;;
62796;SDS011;48839;48.546;-4.178;2023-01-29T07:23:57;19.02;;;10.30;;
62796;SDS011;48839;48.546;-4.178;2023-01-29T07:26:23;21.05;;;11.10;;
62796;SDS011;48839;48.546;-4.178;2023-01-29T07:28:49;18.42;;;9.65;;
62796;SDS011;48839;48.546;-4.178;2023-01-29T07:31:15;16.13;;;8.73;;
62796;SDS011;48839;48.546;-4.178;2023-01-29T07:33:42;18.65;;;9.73;;
62796;SDS011;48839;48.546;-4.178;2023-01-29T07:36:09;22.08;;;12.25;;
62796;SDS011;48839;48.546;-4.178;2023-01-29T07:38:35;25.17;;;14.07;;
62796;SDS011;48839;48.546;-4.178;2023-01-29T07:41:01;20.95;;;13.35;;
62796;SDS011;48839;48.546;-4.178;2023-01-29T07:43:27;24.13;;;12.07;;
62796;SDS011;48839;48.546;-4.178;2023-01-29T07:45:54;16.75;;;9.98;;
62796;SDS011;48839;48.546;-4.178;2023-01-29T07:48:20;20.65;;;10.48;;
62796;SDS011;48839;48.546;-4.178;2023-01-29T07:50:53;19.83;;;10.35;;
62796;SDS011;48839;48.546;-4.178;2023-01-29T07:53:19;18.23;;;10.77;;
62796;SDS011;48839;48.546;-4.178;2023-01-29T07:55:45;17.80;;;9.98;;
62796;SDS011;48839;48.546;-4.178;2023-01-29T07:58:11;18.83;;;9.80;;
62796;SDS011;48839;48.546;-4.178;2023-01-29T08:00:37;17.88;;;10.68;;
62796;SDS011;48839;48.546;-4.178;2023-01-29T08:03:08;21.30;;;11.00;;
62796;SDS011;48839;48.546;-4.178;2023-01-29T08:05:35;19.02;;;10.75;;
62796;SDS011;48839;48.546;-4.178;2023-01-29T08:08:01;22.17;;;10.48;;
62796;SDS011;48839;48.546;-4.178;2023-01-29T08:10:28;18.02;;;10.32;;
62796;SDS011;48839;48.546;-4.178;2023-01-29T08:12:58;24.05;;;11.55;;
62796;SDS011;48839;48.546;-4.178;2023-01-29T08:15:24;19.50;;;10.70;;
62796;SDS011;48839;48.546;-4.178;2023-01-29T08:17:50;19.20;;;10.45;;
62796;SDS011;48839;48.546;-4.178;2023-01-29T08:20:16;21.52;;;11.80;;
62796;SDS011;48839;48.546;-4.178;2023-01-29T08:22:43;21.08;;;10.82;;
62796;SDS011;48839;48.546;-4.178;2023-01-29T08:25:09;22.55;;;11.40;;
62796;SDS011;48839;48.546;-4.178;2023-01-29T08:27:35;19.83;;;10.73;;
62796;SDS011;48839;48.546;-4.178;2023-01-29T08:30:01;21.40;;;10.63;;
62796;SDS011;48839;48.546;-4.178;2023-01-29T08:32:27;21.67;;;11.50;;
62796;SDS011;48839;48.546;-4.178;2023-01-29T08:34:53;22.80;;;11.73;;
62796;SDS011;48839;48.546;-4.178;2023-01-29T08:37:19;21.38;;;11.32;;
62796;SDS011;48839;48.546;-4.178;2023-01-29T08:39:45;28.63;;;11.85;;
62796;SDS011;48839;48.546;-4.178;2023-01-29T08:42:11;20.45;;;10.98;;
62796;SDS011;48839;48.546;-4.178;2023-01-29T08:44:37;27.27;;;11.45;;
62796;SDS011;48839;48.546;-4.178;2023-01-29T08:47:03;25.13;;;12.57;;
62796;SDS011;48839;48.546;-4.178;2023-01-29T08:49:29;26.60;;;13.60;;
62796;SDS011;48839;48.546;-4.178;2023-01-29T08:51:55;22.05;;;11.85;;
62796;SDS011;48839;48.546;-4.178;2023-01-29T08:54:21;25.10;;;11.68;;
62796;SDS011;48839;48.546;-4.178;2023-01-29T08:56:48;20.75;;;11.68;;
62796;SDS011;48839;48.546;-4.178;2023-01-29T08:59:14;20.77;;;12.20;;
62796;SDS011;48839;48.546;-4.178;2023-01-29T09:01:40;26.00;;;11.60;;
62796;SDS011;48839;48.546;-4.178;2023-01-29T09:04:06;24.42;;;13.23;;
62796;SDS011;48839;48.546;-4.178;2023-01-29T09:06:32;26.80;;;11.88;;
62796;SDS011;48839;48.546;-4.178;2023-01-29T09:08:58;22.85;;;11.60;;
62796;SDS011;48839;48.546;-4.178;2023-01-29T09:11:24;24.75;;;12.60;;
62796;SDS011;48839;48.546;-4.178;2023-01-29T09:13:51;23.65;;;12.05;;
62796;SDS011;48839;48.546;-4.178;2023-01-29T09:16:17;24.48;;;12.13;;
62796;SDS011;48839;48.546;-4.178;2023-01-29T09:18:43;21.15;;;12.70;;
62796;SDS011;48839;48.546;-4.178;2023-01-29T09:21:09;23.90;;;12.45;;
62796;SDS011;48839;48.546;-4.178;2023-01-29T09:23:35;22.05;;;12.13;;
62796;SDS011;48839;48.546;-4.178;2023-01-29T09:26:02;23.45;;;11.75;;
62796;SDS011;48839;48.546;-4.178;2023-01-29T09:28:28;22.60;;;12.43;;
62796;SDS011;48839;48.546;-4.178;2023-01-29T09:30:54;27.52;;;12.93;;
62796;SDS011;48839;48.546;-4.178;2023-01-29T09:33:20;22.00;;;12.35;;
62796;SDS011;48839;48.546;-4.178;2023-01-29T09:35:48;22.52;;;11.35;;
62796;SDS011;48839;48.546;-4.178;2023-01-29T09:38:14;22.65;;;12.82;;
62796;SDS011;48839;48.546;-4.178;2023-01-29T09:45:52;22.58;;;11.70;;
62796;SDS011;48839;48.546;-4.178;2023-01-29T09:48:19;22.95;;;12.95;;
62796;SDS011;48839;48.546;-4.178;2023-01-29T09:50:46;22.98;;;12.43;;
62796;SDS011;48839;48.546;-4.178;2023-01-29T09:53:23;33.65;;;16.83;;
62796;SDS011;48839;48.546;-4.178;2023-01-29T09:56:33;24.10;;;12.52;;
62796;SDS011;48839;48.546;-4.178;2023-01-29T09:58:40;28.83;;;14.30;;
62796;SDS011;48839;48.546;-4.178;2023-01-29T10:06:23;92.70;;;32.58;;
62796;SDS011;48839;48.546;-4.178;2023-01-29T10:16:55;26.60;;;13.55;;
62796;SDS011;48839;48.546;-4.178;2023-01-29T10:24:51;20.50;;;14.30;;
62796;SDS011;48839;48.546;-4.178;2023-01-29T10:27:19;24.48;;;14.65;;
62796;SDS011;48839;48.546;-4.178;2023-01-29T10:29:46;16.13;;;9.80;;
62796;SDS011;48839;48.546;-4.178;2023-01-29T10:32:14;21.45;;;12.35;;
62796;SDS011;48839;48.546;-4.178;2023-01-29T10:35:04;19.88;;;13.77;;
62796;SDS011;48839;48.546;-4.178;2023-01-29T10:37:50;33.53;;;21.98;;
62796;SDS011;48839;48.546;-4.178;2023-01-29T10:43:02;24.20;;;14.13;;
62796;SDS011;48839;48.546;-4.178;2023-01-29T10:45:54;24.42;;;15.40;;
62796;SDS011;48839;48.546;-4.178;2023-01-29T10:49:05;42.60;;;28.73;;
62796;SDS011;48839;48.546;-4.178;2023-01-29T10:54:06;26.77;;;16.17;;
62796;SDS011;48839;48.546;-4.178;2023-01-29T11:01:57;27.33;;;16.48;;
62796;SDS011;48839;48.546;-4.178;2023-01-29T11:04:23;22.88;;;13.23;;
62796;SDS011;48839;48.546;-4.178;2023-01-29T11:06:50;23.00;;;17.15;;
62796;SDS011;48839;48.546;-4.178;2023-01-29T11:09:33;29.38;;;18.88;;
62796;SDS011;48839;48.546;-4.178;2023-01-29T11:16:58;21.98;;;12.52;;
62796;SDS011;48839;48.546;-4.178;2023-01-29T11:19:58;24.60;;;13.13;;
62796;SDS011;48839;48.546;-4.178;2023-01-29T11:24:44;20.23;;;10.77;;
62796;SDS011;48839;48.546;-4.178;2023-01-29T11:27:22;21.27;;;11.68;;
62796;SDS011;48839;48.546;-4.178;2023-01-29T11:29:51;26.05;;;17.00;;
62796;SDS011;48839;48.546;-4.178;2023-01-29T11:34:57;23.75;;;15.13;;
62796;SDS011;48839;48.546;-4.178;2023-01-29T11:37:24;28.60;;;17.25;;
62796;SDS011;48839;48.546;-4.178;2023-01-29T11:39:56;33.55;;;20.63;;
62796;SDS011;48839;48.546;-4.178;2023-01-29T11:42:22;36.35;;;22.60;;
62796;SDS011;48839;48.546;-4.178;2023-01-29T11:44:48;30.35;;;17.67;;
62796;SDS011;48839;48.546;-4.178;2023-01-29T11:49:56;24.33;;;14.07;;
62796;SDS011;48839;48.546;-4.178;2023-01-29T11:52:23;25.65;;;15.25;;
62796;SDS011;48839;48.546;-4.178;2023-01-29T11:54:51;27.08;;;17.00;;
62796;SDS011;48839;48.546;-4.178;2023-01-29T11:57:21;25.98;;;15.73;;
62796;SDS011;48839;48.546;-4.178;2023-01-29T11:59:48;20.17;;;12.77;;
62796;SDS011;48839;48.546;-4.178;2023-01-29T12:02:20;22.20;;;12.80;;
62796;SDS011;48839;48.546;-4.178;2023-01-29T12:04:47;26.30;;;15.45;;
62796;SDS011;48839;48.546;-4.178;2023-01-29T12:07:15;26.35;;;15.10;;
62796;SDS011;48839;48.546;-4.178;2023-01-29T12:09:44;21.17;;;11.77;;
62796;SDS011;48839;48.546;-4.178;2023-01-29T12:17:37;19.27;;;11.85;;
62796;SDS011;48839;48.546;-4.178;2023-01-29T12:20:05;23.30;;;14.25;;
62796;SDS011;48839;48.546;-4.178;2023-01-29T12:27:59;20.20;;;11.15;;
62796;SDS011;48839;48.546;-4.178;2023-01-29T12:30:38;16.10;;;9.50;;
62796;SDS011;48839;48.546;-4.178;2023-01-29T12:35:46;14.00;;;9.18;;
62796;SDS011;48839;48.546;-4.178;2023-01-29T12:38:22;18.58;;;10.18;;
62796;SDS011;48839;48.546;-4.178;2023-01-29T12:41:19;19.27;;;10.30;;
62796;SDS011;48839;48.546;-4.178;2023-01-29T12:43:37;14.70;;;8.88;;
62796;SDS011;48839;48.546;-4.178;2023-01-29T12:46:05;15.13;;;8.65;;
62796;SDS011;48839;48.546;-4.178;2023-01-29T12:48:33;14.15;;;8.85;;
62796;SDS011;48839;48.546;-4.178;2023-01-29T12:51:12;15.35;;;9.30;;
62796;SDS011;48839;48.546;-4.178;2023-01-29T12:53:44;14.77;;;8.80;;
62796;SDS011;48839;48.546;-4.178;2023-01-29T12:56:46;15.77;;;8.35;;
62796;SDS011;48839;48.546;-4.178;2023-01-29T12:59:25;14.55;;;8.15;;
62796;SDS011;48839;48.546;-4.178;2023-01-29T13:04:44;16.92;;;9.80;;
62796;SDS011;48839;48.546;-4.178;2023-01-29T13:09:39;15.63;;;10.18;;
62796;SDS011;48839;48.546;-4.178;2023-01-29T13:12:14;18.67;;;10.45;;
62796;SDS011;48839;48.546;-4.178;2023-01-29T13:17:27;21.30;;;12.95;;
62796;SDS011;48839;48.546;-4.178;2023-01-29T13:20:12;56.67;;;25.42;;
62796;SDS011;48839;48.546;-4.178;2023-01-29T13:22:41;102.55;;;44.95;;
62796;SDS011;48839;48.546;-4.178;2023-01-29T13:25:13;68.30;;;37.03;;
62796;SDS011;48839;48.546;-4.178;2023-01-29T13:27:39;24.77;;;15.55;;
62796;SDS011;48839;48.546;-4.178;2023-01-29T13:30:19;24.85;;;14.77;;
62796;SDS011;48839;48.546;-4.178;2023-01-29T13:32:49;23.60;;;15.20;;
62796;SDS011;48839;48.546;-4.178;2023-01-29T13:35:16;20.90;;;14.18;;
62796;SDS011;48839;48.546;-4.178;2023-01-29T13:37:48;19.52;;;12.02;;
62796;SDS011;48839;48.546;-4.178;2023-01-29T13:40:33;22.38;;;11.65;;
62796;SDS011;48839;48.546;-4.178;2023-01-29T13:43:00;21.85;;;12.32;;
62796;SDS011;48839;48.546;-4.178;2023-01-29T13:48:07;16.92;;;9.85;;
62796;SDS011;48839;48.546;-4.178;2023-01-29T13:50:35;17.65;;;10.38;;
62796;SDS011;48839;48.546;-4.178;2023-01-29T13:53:02;15.57;;;10.07;;
62796;SDS011;48839;48.546;-4.178;2023-01-29T13:55:34;18.30;;;10.15;;
62796;SDS011;48839;48.546;-4.178;2023-01-29T13:58:01;17.33;;;9.48;;
62796;SDS011;48839;48.546;-4.178;2023-01-29T14:07:55;15.45;;;8.10;;
62796;SDS011;48839;48.546;-4.178;2023-01-29T14:10:23;15.63;;;9.00;;
62796;SDS011;48839;48.546;-4.178;2023-01-29T14:12:50;17.08;;;9.13;;
62796;SDS011;48839;48.546;-4.178;2023-01-29T14:15:17;17.08;;;9.73;;
62796;SDS011;48839;48.546;-4.178;2023-01-29T14:17:55;14.18;;;8.63;;
62796;SDS011;48839;48.546;-4.178;2023-01-29T14:20:25;15.40;;;8.70;;
62796;SDS011;48839;48.546;-4.178;2023-01-29T14:22:54;17.40;;;10.23;;
62796;SDS011;48839;48.546;-4.178;2023-01-29T14:25:21;17.40;;;8.55;;
62796;SDS011;48839;48.546;-4.178;2023-01-29T14:27:50;16.67;;;8.85;;
62796;SDS011;48839;48.546;-4.178;2023-01-29T14:30:17;17.00;;;8.90;;
62796;SDS011;48839;48.546;-4.178;2023-01-29T14:32:47;17.60;;;9.38;;
62796;SDS011;48839;48.546;-4.178;2023-01-29T14:35:17;16.95;;;9.25;;
62796;SDS011;48839;48.546;-4.178;2023-01-29T14:37:44;16.20;;;9.20;;
62796;SDS011;48839;48.546;-4.178;2023-01-29T14:45:35;16.42;;;8.90;;
62796;SDS011;48839;48.546;-4.178;2023-01-29T14:50:38;15.50;;;8.68;;
62796;SDS011;48839;48.546;-4.178;2023-01-29T14:58:08;15.10;;;8.77;;
62796;SDS011;48839;48.546;-4.178;2023-01-29T15:00:37;15.00;;;8.00;;
62796;SDS011;48839;48.546;-4.178;2023-01-29T15:03:11;15.98;;;8.25;;
62796;SDS011;48839;48.546;-4.178;2023-01-29T15:05:38;15.27;;;8.65;;
62796;SDS011;48839;48.546;-4.178;2023-01-29T15:08:19;14.77;;;8.85;;
62796;SDS011;48839;48.546;-4.178;2023-01-29T15:10:55;20.60;;;9.93;;
62796;SDS011;48839;48.546;-4.178;2023-01-29T15:14:28;14.43;;;7.78;;
62796;SDS011;48839;48.546;-4.178;2023-01-29T15:16:29;14.23;;;8.20;;
62796;SDS011;48839;48.546;-4.178;2023-01-29T15:18:56;18.70;;;9.50;;
62796;SDS011;48839;48.546;-4.178;2023-01-29T15:21:29;13.80;;;8.38;;
62796;SDS011;48839;48.546;-4.178;2023-01-29T15:24:03;14.43;;;8.27;;
62796;SDS011;48839;48.546;-4.178;2023-01-29T15:26:29;18.35;;;10.38;;
62796;SDS011;48839;48.546;-4.178;2023-01-29T15:28:56;32.88;;;16.30;;
62796;SDS011;48839;48.546;-4.178;2023-01-29T15:31:23;35.88;;;17.42;;
62796;SDS011;48839;48.546;-4.178;2023-01-29T15:33:49;42.30;;;21.02;;
62796;SDS011;48839;48.546;-4.178;2023-01-29T15:36:18;52.70;;;29.15;;
62796;SDS011;48839;48.546;-4.178;2023-01-29T15:38:44;34.63;;;19.05;;
62796;SDS011;48839;48.546;-4.178;2023-01-29T15:41:17;30.98;;;18.67;;
62796;SDS011;48839;48.546;-4.178;2023-01-29T15:43:47;18.37;;;10.37;;
62796;SDS011;48839;48.546;-4.178;2023-01-29T15:48:41;15.32;;;10.20;;
62796;SDS011;48839;48.546;-4.178;2023-01-29T15:51:09;15.90;;;9.75;;
62796;SDS011;48839;48.546;-4.178;2023-01-29T15:53:58;15.52;;;9.32;;
62796;SDS011;48839;48.546;-4.178;2023-01-29T15:56:26;15.18;;;8.60;;
62796;SDS011;48839;48.546;-4.178;2023-01-29T15:58:53;16.42;;;8.73;;
62796;SDS011;48839;48.546;-4.178;2023-01-29T16:01:20;17.02;;;9.65;;
62796;SDS011;48839;48.546;-4.178;2023-01-29T16:03:48;15.65;;;9.25;;
62796;SDS011;48839;48.546;-4.178;2023-01-29T16:06:14;18.80;;;8.20;;
62796;SDS011;48839;48.546;-4.178;2023-01-29T16:08:41;14.40;;;8.90;;
62796;SDS011;48839;48.546;-4.178;2023-01-29T16:11:08;15.50;;;8.98;;
62796;SDS011;48839;48.546;-4.178;2023-01-29T16:13:35;18.17;;;9.27;;
62796;SDS011;48839;48.546;-4.178;2023-01-29T16:16:15;17.05;;;9.50;;
62796;SDS011;48839;48.546;-4.178;2023-01-29T16:18:44;16.70;;;9.40;;
62796;SDS011;48839;48.546;-4.178;2023-01-29T16:21:15;19.05;;;9.77;;
62796;SDS011;48839;48.546;-4.178;2023-01-29T16:26:43;16.10;;;9.45;;
62796;SDS011;48839;48.546;-4.178;2023-01-29T16:29:10;17.83;;;9.18;;
62796;SDS011;48839;48.546;-4.178;2023-01-29T16:31:37;16.25;;;9.05;;
62796;SDS011;48839;48.546;-4.178;2023-01-29T16:34:13;18.13;;;9.70;;
62796;SDS011;48839;48.546;-4.178;2023-01-29T16:36:44;15.05;;;9.02;;
62796;SDS011;48839;48.546;-4.178;2023-01-29T16:39:16;17.50;;;9.30;;
62796;SDS011;48839;48.546;-4.178;2023-01-29T16:41:43;17.73;;;9.60;;
62796;SDS011;48839;48.546;-4.178;2023-01-29T16:46:44;20.58;;;10.48;;
62796;SDS011;48839;48.546;-4.178;2023-01-29T16:51:55;18.42;;;10.65;;
62796;SDS011;48839;48.546;-4.178;2023-01-29T16:54:25;18.25;;;9.70;;
62796;SDS011;48839;48.546;-4.178;2023-01-29T16:56:52;15.77;;;9.38;;
62796;SDS011;48839;48.546;-4.178;2023-01-29T16:59:20;16.90;;;9.32;;